createdAt,value
2023-05-20T00:01:18.481Z,15.20
2023-05-20T00:03:46.703Z,15.20
2023-05-20T00:06:13.753Z,15.20
2023-05-20T00:08:40.506Z,15.10
2023-05-20T00:11:07.322Z,15.00
2023-05-20T00:13:36.246Z,15.00
2023-05-20T00:16:03.323Z,15.10
2023-05-20T00:18:30.876Z,15.00
2023-05-20T00:20:57.952Z,14.90
2023-05-20T00:23:24.764Z,15.00
2023-05-20T00:25:51.905Z,14.90
2023-05-20T00:28:19.978Z,14.90
2023-05-20T00:30:47.647Z,14.90
2023-05-20T00:33:14.706Z,14.90
2023-05-20T00:35:41.928Z,14.90
2023-05-20T00:38:09.311Z,14.90
2023-05-20T00:40:36.726Z,14.90
2023-05-20T00:43:04.094Z,14.80
2023-05-20T00:45:31.782Z,14.80
2023-05-20T00:48:01.789Z,14.80
2023-05-20T00:50:29.867Z,14.80
2023-05-20T00:52:57.326Z,14.80
2023-05-20T00:55:24.642Z,14.80
2023-05-20T00:57:52.162Z,14.80
2023-05-20T01:00:19.675Z,14.70
2023-05-20T01:02:47.882Z,14.80
2023-05-20T01:05:14.964Z,14.70
2023-05-20T01:07:42.164Z,14.70
2023-05-20T01:10:10.614Z,14.70
2023-05-20T01:12:43.879Z,14.70
2023-05-20T01:15:12.277Z,14.70
2023-05-20T01:17:45.530Z,14.60
2023-05-20T01:20:15.688Z,14.70
2023-05-20T01:22:49.261Z,14.70
2023-05-20T01:25:16.090Z,14.60
2023-05-20T01:27:43.486Z,14.70
2023-05-20T01:30:11.636Z,14.70
2023-05-20T01:32:40.535Z,14.60
2023-05-20T01:35:08.293Z,14.60
2023-05-20T01:37:59.005Z,14.60
2023-05-20T01:40:27.975Z,14.60
2023-05-20T01:42:55.643Z,14.60
2023-05-20T01:45:23.923Z,14.60
2023-05-20T01:47:51.420Z,14.60
2023-05-20T01:50:18.504Z,14.50
2023-05-20T01:52:45.984Z,14.60
2023-05-20T01:55:13.906Z,14.50
2023-05-20T01:57:40.998Z,14.50
2023-05-20T02:00:10.204Z,14.50
2023-05-20T02:02:45.121Z,14.50
2023-05-20T02:05:13.080Z,14.50
2023-05-20T02:07:42.604Z,14.50
2023-05-20T02:10:10.106Z,14.50
2023-05-20T02:12:37.231Z,14.60
2023-05-20T02:15:05.672Z,14.60
2023-05-20T02:17:32.724Z,14.60
2023-05-20T02:19:59.806Z,14.50
2023-05-20T02:22:27.248Z,14.60
2023-05-20T02:24:54.236Z,14.50
2023-05-20T02:27:21.023Z,14.60
2023-05-20T02:29:47.799Z,14.60
2023-05-20T02:32:15.282Z,14.60
2023-05-20T02:34:43.214Z,14.40
2023-05-20T02:37:10.696Z,14.40
2023-05-20T02:39:37.774Z,14.40
2023-05-20T02:42:04.779Z,14.40
2023-05-20T02:44:31.986Z,14.40
2023-05-20T02:46:59.315Z,14.30
2023-05-20T02:49:26.700Z,14.40
2023-05-20T02:51:53.654Z,14.40
2023-05-20T02:54:21.271Z,14.30
2023-05-20T02:56:48.452Z,14.20
2023-05-20T02:59:15.713Z,14.20
2023-05-20T03:01:43.198Z,14.20
2023-05-20T03:04:10.337Z,14.10
2023-05-20T03:06:38.339Z,14.10
2023-05-20T03:09:06.383Z,14.20
2023-05-20T03:11:33.753Z,14.20
2023-05-20T03:14:01.136Z,14.00
2023-05-20T03:16:28.551Z,14.10
2023-05-20T03:18:58.451Z,14.10
2023-05-20T03:21:26.496Z,14.10
2023-05-20T03:23:53.861Z,14.20
2023-05-20T03:26:21.998Z,14.20
2023-05-20T03:28:49.476Z,14.10
2023-05-20T03:31:17.861Z,14.10
2023-05-20T03:33:46.257Z,14.00
2023-05-20T03:36:13.327Z,14.00
2023-05-20T03:38:40.394Z,14.00
2023-05-20T03:41:07.914Z,14.00
2023-05-20T03:43:36.116Z,14.00
2023-05-20T03:46:03.108Z,14.00
2023-05-20T03:48:30.002Z,14.00
2023-05-20T03:50:56.918Z,14.00
2023-05-20T03:53:24.374Z,14.00
2023-05-20T03:55:51.339Z,14.00
2023-05-20T03:58:18.484Z,14.00
2023-05-20T04:00:45.341Z,14.00
2023-05-20T04:03:12.724Z,14.00
2023-05-20T04:05:39.760Z,13.90
2023-05-20T04:08:15.286Z,13.90
2023-05-20T04:10:45.278Z,14.00
2023-05-20T04:13:12.752Z,13.90
2023-05-20T04:15:41.720Z,14.00
2023-05-20T04:18:10.556Z,13.90
2023-05-20T04:20:38.567Z,14.00
2023-05-20T04:23:05.738Z,14.00
2023-05-20T04:25:33.298Z,13.90
2023-05-20T04:28:00.736Z,13.90
2023-05-20T04:30:34.863Z,13.90
2023-05-20T04:33:04.038Z,13.90
2023-05-20T04:35:32.073Z,13.90
2023-05-20T04:38:03.328Z,13.90
2023-05-20T04:40:30.397Z,13.90
2023-05-20T04:43:00.315Z,13.90
2023-05-20T04:45:28.699Z,13.90
2023-05-20T04:47:55.635Z,13.80
2023-05-20T04:50:22.508Z,13.90
2023-05-20T04:52:49.448Z,13.90
2023-05-20T04:55:16.801Z,13.90
2023-05-20T04:57:43.649Z,13.80
2023-05-20T05:00:12.664Z,13.80
2023-05-20T05:02:40.995Z,13.80
2023-05-20T05:05:08.462Z,13.60
2023-05-20T05:07:37.007Z,13.70
2023-05-20T05:10:04.439Z,13.70
2023-05-20T05:12:33.249Z,13.80
2023-05-20T05:15:00.400Z,13.70
2023-05-20T05:17:28.732Z,13.70
2023-05-20T05:19:57.025Z,13.90
2023-05-20T05:22:24.082Z,13.90
2023-05-20T05:24:52.326Z,14.10
2023-05-20T05:27:19.465Z,14.00
2023-05-20T05:29:46.640Z,14.10
2023-05-20T05:32:14.130Z,14.10
2023-05-20T05:34:41.545Z,14.10
2023-05-20T05:37:09.274Z,14.10
2023-05-20T05:39:37.901Z,14.10
2023-05-20T05:42:05.551Z,14.10
2023-05-20T05:44:33.375Z,14.20
2023-05-20T05:47:00.741Z,14.10
2023-05-20T05:49:27.803Z,14.10
2023-05-20T05:51:55.007Z,14.10
2023-05-20T05:54:22.077Z,14.10
2023-05-20T05:56:51.745Z,14.00
2023-05-20T05:59:19.423Z,14.00
2023-05-20T06:01:48.853Z,14.10
2023-05-20T06:04:16.042Z,14.10
2023-05-20T06:06:44.136Z,14.10
2023-05-20T06:09:11.474Z,14.20
2023-05-20T06:11:39.012Z,14.30
2023-05-20T06:14:05.899Z,14.20
2023-05-20T06:16:33.280Z,14.20
2023-05-20T06:19:03.739Z,14.20
2023-05-20T06:21:33.040Z,14.20
2023-05-20T06:24:00.934Z,14.20
2023-05-20T06:26:27.946Z,14.20
2023-05-20T06:28:55.058Z,14.30
2023-05-20T06:31:23.833Z,14.30
2023-05-20T06:33:51.856Z,14.30
2023-05-20T06:36:20.298Z,14.30
2023-05-20T06:38:48.127Z,14.40
2023-05-20T06:41:16.253Z,14.40
2023-05-20T06:43:44.158Z,14.60
2023-05-20T06:46:30.010Z,14.80
2023-05-20T06:49:04.921Z,14.90
2023-05-20T06:51:32.213Z,15.00
2023-05-20T06:54:00.340Z,15.00
2023-05-20T06:56:27.488Z,15.00
2023-05-20T06:58:55.456Z,15.30
2023-05-20T07:01:22.537Z,15.10
2023-05-20T07:03:50.267Z,15.20
2023-05-20T07:06:18.088Z,15.30
2023-05-20T07:08:45.370Z,15.30
2023-05-20T07:11:12.740Z,15.50
2023-05-20T07:13:39.952Z,15.90
2023-05-20T07:16:07.449Z,16.20
2023-05-20T07:18:37.142Z,16.20
2023-05-20T07:21:04.168Z,16.30
2023-05-20T07:23:42.572Z,16.20
2023-05-20T07:26:09.762Z,16.40
2023-05-20T07:28:36.668Z,16.30
2023-05-20T07:31:04.034Z,16.30
2023-05-20T07:33:33.134Z,16.60
2023-05-20T07:36:00.515Z,16.60
2023-05-20T07:38:27.540Z,16.50
2023-05-20T07:41:01.095Z,16.40
2023-05-20T07:43:28.805Z,16.30
2023-05-20T07:45:56.980Z,16.20
2023-05-20T07:48:24.148Z,16.30
2023-05-20T07:50:51.501Z,16.20
2023-05-20T07:53:20.242Z,16.10
2023-05-20T07:55:47.651Z,16.20
2023-05-20T07:58:15.397Z,16.30
2023-05-20T08:00:42.452Z,16.30
2023-05-20T08:03:09.597Z,16.70
2023-05-20T08:05:49.750Z,16.90
2023-05-20T08:08:17.229Z,17.10
2023-05-20T08:10:57.654Z,17.00
2023-05-20T08:13:27.012Z,16.60
2023-05-20T08:15:54.833Z,16.90
2023-05-20T08:18:22.477Z,16.70
2023-05-20T08:20:49.483Z,16.50
2023-05-20T08:23:16.978Z,16.60
2023-05-20T08:25:46.844Z,16.60
2023-05-20T08:28:13.966Z,16.70
2023-05-20T08:30:41.410Z,16.90
2023-05-20T08:33:08.641Z,17.10
2023-05-20T08:35:36.624Z,17.40
2023-05-20T08:38:03.556Z,17.50
2023-05-20T08:40:30.895Z,17.60
2023-05-20T08:42:59.526Z,17.60
2023-05-20T08:45:28.553Z,17.80
2023-05-20T08:48:00.906Z,17.90
2023-05-20T08:50:27.941Z,18.00
2023-05-20T08:52:54.951Z,18.20
2023-05-20T08:55:40.329Z,18.20
2023-05-20T08:58:07.720Z,18.10
2023-05-20T09:00:35.034Z,18.20
2023-05-20T09:03:01.892Z,18.20
2023-05-20T09:05:29.504Z,18.30
2023-05-20T09:08:09.689Z,18.40
2023-05-20T09:10:37.162Z,18.60
2023-05-20T09:13:06.478Z,18.30
2023-05-20T09:15:34.492Z,18.40
2023-05-20T09:18:02.431Z,18.50
2023-05-20T09:20:30.115Z,18.70
2023-05-20T09:23:07.290Z,18.60
2023-05-20T09:25:35.337Z,18.80
2023-05-20T09:28:07.740Z,18.90
2023-05-20T09:30:34.912Z,19.00
2023-05-20T09:33:03.701Z,19.10
2023-05-20T09:35:30.620Z,19.50
2023-05-20T09:37:58.450Z,19.10
2023-05-20T09:40:26.458Z,19.10
2023-05-20T09:42:57.790Z,19.30
2023-05-20T09:45:27.880Z,19.20
2023-05-20T09:47:56.703Z,19.30
2023-05-20T09:50:27.182Z,19.40
2023-05-20T09:52:55.017Z,19.50
2023-05-20T09:55:25.275Z,19.50
2023-05-20T09:57:52.367Z,19.50
2023-05-20T10:00:20.160Z,19.60
2023-05-20T10:02:48.258Z,19.20
2023-05-20T10:05:20.618Z,19.30
2023-05-20T10:07:53.562Z,19.30
2023-05-20T10:10:20.520Z,19.20
2023-05-20T10:13:49.076Z,18.80
2023-05-20T10:16:30.382Z,18.90
2023-05-20T10:18:57.589Z,19.30
2023-05-20T10:21:24.761Z,19.30
2023-05-20T10:23:52.399Z,19.50
2023-05-20T10:26:19.866Z,19.70
2023-05-20T10:28:50.234Z,20.10
2023-05-20T10:31:23.650Z,20.50
2023-05-20T10:33:53.257Z,20.80
2023-05-20T10:36:26.375Z,20.90
2023-05-20T10:39:17.654Z,21.30
2023-05-20T10:41:45.048Z,21.40
2023-05-20T10:44:12.354Z,21.40
2023-05-20T10:46:57.164Z,21.30
2023-05-20T10:49:27.753Z,21.20
2023-05-20T10:51:55.829Z,21.30
2023-05-20T10:54:23.314Z,21.30
2023-05-20T10:56:53.759Z,21.70
2023-05-20T10:59:21.922Z,21.70
2023-05-20T11:01:48.787Z,21.70
2023-05-20T11:04:17.656Z,21.90
2023-05-20T11:06:53.892Z,21.90
2023-05-20T11:09:20.946Z,21.90
2023-05-20T11:11:47.835Z,21.40
2023-05-20T11:14:15.288Z,21.70
2023-05-20T11:16:43.031Z,22.10
2023-05-20T11:19:15.698Z,21.80
2023-05-20T11:21:46.545Z,21.20
2023-05-20T11:24:13.948Z,21.00
2023-05-20T11:26:41.239Z,21.50
2023-05-20T11:29:08.614Z,21.50
2023-05-20T11:31:37.804Z,20.90
2023-05-20T11:34:04.652Z,20.80
2023-05-20T11:36:32.395Z,21.00
2023-05-20T11:39:00.211Z,20.70
2023-05-20T11:41:27.711Z,20.50
2023-05-20T11:44:01.161Z,20.40
2023-05-20T11:46:28.415Z,20.70
2023-05-20T11:48:55.723Z,20.90
2023-05-20T11:51:29.512Z,20.90
2023-05-20T11:54:01.533Z,20.50
2023-05-20T11:56:33.236Z,20.30
2023-05-20T11:59:01.294Z,20.50
2023-05-20T12:01:31.346Z,20.30
2023-05-20T12:03:58.268Z,20.20
2023-05-20T12:06:25.892Z,20.10
2023-05-20T12:08:52.947Z,20.10
2023-05-20T12:11:20.601Z,20.10
2023-05-20T12:13:48.808Z,20.50
2023-05-20T12:16:16.366Z,20.80
2023-05-20T12:18:43.779Z,20.60
2023-05-20T12:21:11.254Z,20.20
2023-05-20T12:23:39.523Z,20.30
2023-05-20T12:26:07.832Z,20.30
2023-05-20T12:28:34.991Z,20.40
2023-05-20T12:31:02.171Z,20.40
2023-05-20T12:33:29.376Z,20.30
2023-05-20T12:35:56.337Z,20.20
2023-05-20T12:38:23.327Z,20.00
2023-05-20T12:40:50.323Z,20.00
2023-05-20T12:43:17.091Z,20.00
2023-05-20T12:45:44.522Z,19.90
2023-05-20T12:48:11.664Z,19.90
2023-05-20T12:50:38.903Z,20.20
2023-05-20T12:53:06.908Z,20.30
2023-05-20T12:55:34.001Z,20.10
2023-05-20T12:58:01.067Z,20.30
2023-05-20T13:00:28.080Z,20.60
2023-05-20T13:02:55.190Z,20.60
2023-05-20T13:05:22.908Z,20.50
2023-05-20T13:07:51.562Z,20.40
2023-05-20T13:10:18.803Z,20.60
2023-05-20T13:12:48.598Z,20.60
2023-05-20T13:15:16.146Z,20.50
2023-05-20T13:17:43.109Z,20.50
2023-05-20T13:20:11.021Z,20.70
2023-05-20T13:22:38.711Z,20.70
2023-05-20T13:25:06.855Z,20.70
2023-05-20T13:27:34.225Z,20.70
2023-05-20T13:30:02.093Z,20.60
2023-05-20T13:32:29.311Z,20.60
2023-05-20T13:34:57.373Z,20.70
2023-05-20T13:37:24.381Z,20.60
2023-05-20T13:39:51.640Z,20.60
2023-05-20T13:42:18.604Z,20.70
2023-05-20T13:44:45.930Z,20.90
2023-05-20T13:47:13.015Z,21.00
2023-05-20T13:49:39.845Z,21.00
2023-05-20T13:52:07.329Z,21.00
2023-05-20T13:54:34.378Z,21.10
2023-05-20T13:57:01.713Z,21.00
2023-05-20T13:59:29.188Z,20.90
2023-05-20T14:01:56.803Z,20.70
2023-05-20T14:04:25.567Z,20.70
2023-05-20T14:06:52.337Z,20.70
2023-05-20T14:09:19.802Z,20.80
2023-05-20T14:11:46.576Z,20.70
2023-05-20T14:14:13.571Z,20.60
2023-05-20T14:16:40.918Z,20.60
2023-05-20T14:19:09.120Z,20.50
2023-05-20T14:21:36.052Z,20.50
2023-05-20T14:24:03.456Z,20.40
2023-05-20T14:26:30.951Z,20.40
2023-05-20T14:28:58.634Z,20.50
2023-05-20T14:31:46.912Z,20.60
2023-05-20T14:34:13.966Z,20.70
2023-05-20T14:36:41.352Z,20.80
2023-05-20T14:39:08.284Z,20.80
2023-05-20T14:41:35.029Z,20.70
2023-05-20T14:44:01.965Z,20.70
2023-05-20T14:46:29.020Z,20.60
2023-05-20T14:48:56.473Z,20.50
2023-05-20T14:51:23.504Z,20.60
2023-05-20T14:53:50.829Z,20.60
2023-05-20T14:56:17.578Z,20.40
2023-05-20T14:58:44.374Z,20.50
2023-05-20T15:01:11.402Z,20.70
2023-05-20T15:03:38.478Z,20.60
2023-05-20T15:06:06.345Z,20.50
2023-05-20T15:08:33.358Z,20.60
2023-05-20T15:11:00.163Z,20.70
2023-05-20T15:13:27.338Z,20.70
2023-05-20T15:15:54.517Z,20.70
2023-05-20T15:18:21.369Z,20.50
2023-05-20T15:20:48.393Z,20.50
2023-05-20T15:23:17.270Z,20.50
2023-05-20T15:25:44.051Z,20.50
2023-05-20T15:28:11.786Z,20.50
2023-05-20T15:30:39.165Z,20.30
2023-05-20T15:33:06.027Z,20.20
2023-05-20T15:35:33.096Z,20.10
2023-05-20T15:38:00.157Z,20.10
2023-05-20T15:40:28.062Z,20.10
2023-05-20T15:42:55.078Z,20.10
2023-05-20T15:45:21.830Z,20.10
2023-05-20T15:47:49.257Z,20.00
2023-05-20T15:50:16.797Z,19.90
2023-05-20T15:52:44.603Z,19.90
2023-05-20T15:55:12.966Z,19.80
2023-05-20T15:57:40.154Z,19.80
2023-05-20T16:00:10.320Z,19.80
2023-05-20T16:02:37.683Z,19.80
2023-05-20T16:05:05.061Z,19.90
2023-05-20T16:07:32.417Z,19.80
2023-05-20T16:09:59.119Z,19.80
2023-05-20T16:12:25.891Z,19.80
2023-05-20T16:14:53.133Z,19.80
2023-05-20T16:17:23.117Z,19.70
2023-05-20T16:19:50.140Z,19.70
2023-05-20T16:22:18.359Z,19.70
2023-05-20T16:24:45.873Z,19.80
2023-05-20T16:27:12.912Z,19.80
2023-05-20T16:29:39.899Z,19.80
2023-05-20T16:32:07.961Z,19.70
2023-05-20T16:34:35.384Z,19.70
2023-05-20T16:37:02.450Z,19.70
2023-05-20T16:39:29.537Z,19.70
2023-05-20T16:41:56.702Z,19.60
2023-05-20T16:44:23.714Z,19.60
2023-05-20T16:46:53.331Z,19.60
2023-05-20T16:49:21.135Z,19.70
2023-05-20T16:51:48.209Z,19.60
2023-05-20T16:54:15.143Z,19.60
2023-05-20T16:56:42.270Z,19.50
2023-05-20T16:59:09.612Z,19.50
2023-05-20T17:01:37.085Z,19.50
2023-05-20T17:04:04.058Z,19.40
2023-05-20T17:06:34.499Z,19.40
2023-05-20T17:09:05.280Z,19.30
2023-05-20T17:11:35.684Z,19.30
2023-05-20T17:14:03.194Z,19.20
2023-05-20T17:16:30.639Z,19.20
2023-05-20T17:18:58.553Z,19.20
2023-05-20T17:21:25.767Z,19.20
2023-05-20T17:23:52.890Z,19.10
2023-05-20T17:26:19.918Z,19.20
2023-05-20T17:28:47.285Z,19.10
2023-05-20T17:31:15.055Z,19.10
2023-05-20T17:33:43.880Z,19.00
2023-05-20T17:36:11.078Z,19.00
2023-05-20T17:38:38.459Z,19.00
2023-05-20T17:41:05.585Z,18.90
2023-05-20T17:43:32.533Z,18.90
2023-05-20T17:45:59.851Z,18.80
2023-05-20T17:48:27.231Z,18.80
2023-05-20T17:50:53.975Z,18.70
2023-05-20T17:53:22.264Z,18.70
2023-05-20T17:55:49.522Z,18.70
2023-05-20T17:58:16.871Z,18.70
2023-05-20T18:00:44.310Z,18.70
2023-05-20T18:03:11.167Z,18.60
2023-05-20T18:05:38.388Z,18.60
2023-05-20T18:08:06.456Z,18.60
2023-05-20T18:10:33.658Z,18.60
2023-05-20T18:13:01.359Z,18.60
2023-05-20T18:15:28.718Z,18.60
2023-05-20T18:17:55.706Z,18.50
2023-05-20T18:20:23.428Z,18.50
2023-05-20T18:22:52.549Z,18.40
2023-05-20T18:25:19.580Z,18.40
2023-05-20T18:27:47.158Z,18.30
2023-05-20T18:30:14.421Z,18.30
2023-05-20T18:32:41.566Z,18.30
2023-05-20T18:35:08.714Z,18.20
2023-05-20T18:37:35.460Z,18.20
2023-05-20T18:40:02.309Z,18.10
2023-05-20T18:42:30.972Z,18.10
2023-05-20T18:44:57.777Z,18.00
2023-05-20T18:47:24.581Z,18.00
2023-05-20T18:49:51.546Z,18.00
2023-05-20T18:52:18.973Z,17.90
2023-05-20T18:54:46.408Z,17.80
2023-05-20T18:57:14.090Z,17.80
2023-05-20T18:59:41.609Z,17.80
2023-05-20T19:02:08.365Z,17.80
2023-05-20T19:04:35.806Z,17.70
2023-05-20T19:07:03.704Z,17.70
2023-05-20T19:09:30.890Z,17.60
2023-05-20T19:11:59.243Z,17.60
2023-05-20T19:14:27.081Z,17.60
2023-05-20T19:16:54.496Z,17.50
2023-05-20T19:19:21.380Z,17.50
2023-05-20T19:21:49.409Z,17.50
2023-05-20T19:24:17.834Z,17.40
2023-05-20T19:26:45.365Z,17.40
2023-05-20T19:29:12.393Z,17.40
2023-05-20T19:31:43.116Z,17.40
2023-05-20T19:34:10.410Z,17.30
2023-05-20T19:36:38.666Z,17.30
2023-05-20T19:39:06.065Z,17.20
2023-05-20T19:41:33.061Z,17.20
2023-05-20T19:44:00.030Z,17.20
2023-05-20T19:46:27.732Z,17.10
2023-05-20T19:48:54.568Z,17.10
2023-05-20T19:51:21.593Z,17.10
2023-05-20T19:53:48.464Z,17.10
2023-05-20T19:56:19.585Z,17.00
2023-05-20T19:58:48.145Z,17.00
2023-05-20T20:01:15.271Z,16.90
2023-05-20T20:03:42.621Z,16.90
2023-05-20T20:06:09.976Z,16.90
2023-05-20T20:08:40.363Z,16.90
2023-05-20T20:11:07.281Z,16.80
2023-05-20T20:13:34.112Z,16.80
2023-05-20T20:16:00.997Z,16.80
2023-05-20T20:18:28.034Z,16.80
2023-05-20T20:20:55.393Z,16.80
2023-05-20T20:23:22.512Z,16.70
2023-05-20T20:25:50.722Z,16.70
2023-05-20T20:28:18.246Z,16.70
2023-05-20T20:30:45.398Z,16.70
2023-05-20T20:33:13.226Z,16.70
2023-05-20T20:35:40.617Z,16.60
2023-05-20T20:38:11.094Z,16.60
2023-05-20T20:40:42.478Z,16.60
2023-05-20T20:43:11.083Z,16.50
2023-05-20T20:45:38.547Z,16.50
2023-05-20T20:48:08.370Z,16.50
2023-05-20T20:50:35.739Z,16.50
2023-05-20T20:53:03.027Z,16.40
2023-05-20T20:55:30.787Z,16.40
2023-05-20T20:57:58.290Z,16.40
2023-05-20T21:00:27.122Z,16.40
2023-05-20T21:02:54.323Z,16.30
2023-05-20T21:05:21.498Z,16.30
2023-05-20T21:07:58.409Z,16.30
2023-05-20T21:10:29.074Z,16.30
2023-05-20T21:12:57.179Z,16.30
2023-05-20T21:15:24.738Z,16.30
2023-05-20T21:17:52.097Z,16.20
2023-05-20T21:20:21.615Z,16.20
2023-05-20T21:22:48.634Z,16.20
2023-05-20T21:25:16.108Z,16.20
2023-05-20T21:27:43.109Z,16.20
2023-05-20T21:30:10.994Z,16.20
2023-05-20T21:32:38.268Z,16.10
2023-05-20T21:35:05.665Z,16.20
2023-05-20T21:37:32.670Z,16.20
2023-05-20T21:39:59.573Z,16.10
2023-05-20T21:42:26.898Z,16.00
2023-05-20T21:44:53.938Z,16.00
2023-05-20T21:47:21.388Z,16.00
2023-05-20T21:49:48.372Z,16.00
2023-05-20T21:52:15.303Z,16.00
2023-05-20T21:54:42.390Z,16.00
2023-05-20T21:57:09.351Z,16.00
2023-05-20T21:59:36.361Z,16.00
2023-05-20T22:02:03.723Z,16.00
2023-05-20T22:04:33.653Z,15.90
2023-05-20T22:07:00.995Z,15.90
2023-05-20T22:09:27.914Z,16.00
2023-05-20T22:11:55.366Z,16.00
2023-05-20T22:14:22.402Z,15.90
2023-05-20T22:16:50.559Z,15.90
2023-05-20T22:19:17.491Z,15.90
2023-05-20T22:24:15.655Z,15.90
2023-05-20T22:26:42.981Z,15.90
2023-05-20T22:29:10.311Z,15.80
2023-05-20T22:31:38.051Z,15.90
2023-05-20T22:34:05.500Z,15.80
2023-05-20T22:36:34.237Z,15.80
2023-05-20T22:39:02.213Z,15.80
2023-05-20T22:41:30.932Z,15.80
2023-05-20T22:43:58.414Z,15.80
2023-05-20T22:46:25.899Z,15.80
2023-05-20T22:48:53.422Z,15.80
2023-05-20T22:51:24.813Z,15.80
2023-05-20T22:53:51.946Z,15.80
2023-05-20T22:56:19.213Z,15.80
2023-05-20T22:58:46.196Z,15.80
2023-05-20T23:01:13.705Z,15.80
2023-05-20T23:03:40.553Z,15.80
2023-05-20T23:06:07.547Z,15.80
2023-05-20T23:08:34.997Z,15.70
2023-05-20T23:11:01.807Z,15.70
2023-05-20T23:13:28.604Z,15.70
2023-05-20T23:15:55.772Z,15.60
2023-05-20T23:18:22.570Z,15.70
2023-05-20T23:20:49.337Z,15.70
2023-05-20T23:23:17.169Z,15.60
2023-05-20T23:25:46.034Z,15.60
2023-05-20T23:28:15.381Z,15.60
2023-05-20T23:30:42.519Z,15.60
2023-05-20T23:33:09.460Z,15.50
2023-05-20T23:35:36.517Z,15.60
2023-05-20T23:38:03.684Z,15.60
2023-05-20T23:40:30.667Z,15.50
2023-05-20T23:42:57.917Z,15.50
2023-05-20T23:45:24.670Z,15.50
2023-05-20T23:47:52.017Z,15.50
2023-05-20T23:50:18.807Z,15.50
2023-05-20T23:52:46.374Z,15.50
2023-05-20T23:55:14.510Z,15.50
2023-05-20T23:57:41.899Z,15.50
